Time;durP1;ratioP1;P1;durP2;ratioP2;P2;SDS_P1;SDS_P2;PMS_P1;PMS_P2;Temp;Humidity;BMP_temperature;BMP_pressure;BME280_temperature;BME280_humidity;BME280_pressure;Samples;Min_cycle;Max_cycle;Signal;HPM_P1;HPM_P2
2021/07/16 00:01:18;;;;;;;;;10.25;10.00;;;;;19.88;60.07;101444.03;5077213;28;45715;-80
2021/07/16 00:03:43;;;;;;;;;10.50;9.75;;;;;19.79;60.16;101429.81;5077704;28;45592;-80
2021/07/16 00:06:09;;;;;;;;;11.75;10.75;;;;;19.80;60.36;101420.84;5077369;28;46248;-81
2021/07/16 00:08:34;;;;;;;;;10.75;9.75;;;;;19.84;60.36;101442.66;5077237;28;45522;-79
2021/07/16 00:11:00;;;;;;;;;13.50;13.00;;;;;19.76;60.66;101430.06;5077076;28;45706;-79
2021/07/16 00:13:25;;;;;;;;;12.25;10.00;;;;;19.78;60.66;101446.75;5058663;28;45819;-80
2021/07/16 00:15:51;;;;;;;;;9.75;9.25;;;;;19.76;60.77;101439.91;5076820;28;45680;-79
2021/07/16 00:18:16;;;;;;;;;10.75;9.75;;;;;19.74;60.90;101440.06;5076736;28;46524;-79
2021/07/16 00:20:44;;;;;;;;;12.75;11.75;;;;;19.72;61.23;101434.03;5076692;28;45596;-80
2021/07/16 00:23:10;;;;;;;;;14.50;12.75;;;;;19.67;61.08;101421.19;5058868;28;46021;-80
2021/07/16 00:25:36;;;;;;;;;12.00;11.50;;;;;19.65;60.91;101411.66;5076762;28;45930;-81
2021/07/16 00:31:24;;;;;;;;;13.50;12.75;;;;;19.66;60.89;101431.97;5076610;28;45681;-79
2021/07/16 00:33:51;;;;;;;;;13.25;13.25;;;;;19.63;61.11;101427.78;5077134;28;45583;-80
2021/07/16 00:36:16;;;;;;;;;12.25;10.25;;;;;19.62;61.18;101434.09;5076054;28;46619;-79
2021/07/16 00:38:41;;;;;;;;;13.50;13.25;;;;;19.61;60.94;101423.59;5076358;28;46344;-80
2021/07/16 00:41:07;;;;;;;;;13.00;11.25;;;;;19.53;61.13;101411.06;5076681;28;45606;-80
2021/07/16 00:43:32;;;;;;;;;13.50;12.50;;;;;19.62;61.31;101428.75;5076901;28;45788;-80
2021/07/16 00:45:58;;;;;;;;;10.25;10.00;;;;;19.51;61.25;101412.16;5076814;28;46777;-80
2021/07/16 00:48:23;;;;;;;;;10.75;10.50;;;;;19.57;61.27;101416.91;5076187;28;45558;-79
2021/07/16 00:50:49;;;;;;;;;14.75;12.25;;;;;19.55;61.42;101414.38;5076489;28;45486;-81
2021/07/16 00:53:18;;;;;;;;;12.75;12.00;;;;;19.60;61.74;101430.72;5076067;28;45786;-79
2021/07/16 00:55:44;;;;;;;;;11.25;11.00;;;;;19.49;61.73;101427.41;5077645;28;46194;-80
2021/07/16 00:58:27;;;;;;;;;10.75;10.00;;;;;19.59;61.42;101436.22;5026736;28;46114;-80
2021/07/16 01:00:52;;;;;;;;;10.50;9.50;;;;;19.48;61.64;101412.47;5009226;28;45712;-80
2021/07/16 01:03:18;;;;;;;;;12.75;9.25;;;;;19.58;61.63;101431.88;4995765;28;45706;-80
2021/07/16 01:05:43;;;;;;;;;12.75;11.75;;;;;19.54;61.72;101433.16;5003373;28;47479;-80
2021/07/16 01:08:09;;;;;;;;;10.25;9.25;;;;;19.56;61.52;101445.31;5008261;28;46912;-80
2021/07/16 01:10:35;;;;;;;;;10.00;8.75;;;;;19.54;62.06;101425.19;5008893;28;45710;-79
2021/07/16 01:13:01;;;;;;;;;11.50;10.75;;;;;19.54;61.78;101433.16;5007790;28;46271;-80
2021/07/16 01:15:30;;;;;;;;;10.75;8.25;;;;;19.50;62.24;101421.97;5008837;28;47323;-80
2021/07/16 01:17:56;;;;;;;;;11.50;11.25;;;;;19.52;61.91;101443.94;5008581;28;45518;-79
2021/07/16 01:20:24;;;;;;;;;11.25;10.75;;;;;19.49;62.29;101424.75;5008786;28;45651;-80
2021/07/16 01:22:51;;;;;;;;;11.25;10.75;;;;;19.46;62.00;101425.06;5000621;28;45603;-80
2021/07/16 01:25:20;;;;;;;;;11.75;9.75;;;;;19.40;61.89;101413.16;5008432;28;47447;-79
2021/07/16 01:27:48;;;;;;;;;15.50;13.50;;;;;19.49;62.34;101430.06;5008219;28;46355;-80
2021/07/16 01:30:16;;;;;;;;;10.00;9.75;;;;;19.43;62.15;101426.19;5004611;28;45715;-80
2021/07/16 01:32:42;;;;;;;;;12.00;10.00;;;;;19.36;62.25;101432.22;5016148;28;45704;-78
2021/07/16 01:35:09;;;;;;;;;12.50;12.00;;;;;19.45;62.56;101439.31;5010216;28;46871;-79
2021/07/16 01:37:37;;;;;;;;;9.00;9.00;;;;;19.34;62.29;101421.72;5003566;28;45555;-80
2021/07/16 01:40:17;;;;;;;;;10.75;10.50;;;;;19.43;62.52;101436.81;5013810;28;45776;-81
2021/07/16 01:42:45;;;;;;;;;11.00;10.75;;;;;19.42;62.98;101426.31;5014713;28;45747;-81
2021/07/16 01:45:17;;;;;;;;;13.25;11.00;;;;;19.43;62.50;101435.97;5027242;28;47718;-82
2021/07/16 01:47:50;;;;;;;;;10.25;10.00;;;;;19.42;62.40;101434.28;5010386;28;46121;-80
2021/07/16 01:50:17;;;;;;;;;12.00;11.00;;;;;19.33;63.27;101424.50;5009320;28;45663;-81
2021/07/16 01:52:45;;;;;;;;;12.00;11.50;;;;;19.12;62.48;101399.00;5009173;28;45622;-81
2021/07/16 01:55:11;;;;;;;;;13.00;11.00;;;;;19.33;63.24;101435.13;5005301;28;45631;-80
2021/07/16 01:57:36;;;;;;;;;11.25;10.75;;;;;19.37;62.66;101433.88;5015481;28;46889;-80
2021/07/16 02:00:11;;;;;;;;;13.50;9.75;;;;;19.37;63.21;101437.38;5027695;28;45717;-81
2021/07/16 02:02:52;;;;;;;;;11.75;11.00;;;;;19.37;62.83;101441.84;5026218;28;45686;-80
2021/07/16 02:05:18;;;;;;;;;10.75;10.00;;;;;19.35;63.00;101455.28;5018517;28;47835;-80
2021/07/16 02:07:50;;;;;;;;;11.00;10.00;;;;;19.31;62.82;101429.16;5025568;28;46369;-80
2021/07/16 02:10:16;;;;;;;;;9.75;9.50;;;;;19.30;62.83;101428.31;5014541;28;45637;-80
2021/07/16 02:12:41;;;;;;;;;10.75;10.75;;;;;19.28;63.38;101431.09;5013295;28;45844;-80
2021/07/16 02:15:13;;;;;;;;;9.00;9.00;;;;;19.22;62.97;101418.41;5014971;28;45656;-80
2021/07/16 02:17:38;;;;;;;;;9.25;9.00;;;;;19.29;63.22;101437.25;5014150;28;47413;-81
2021/07/16 02:20:04;;;;;;;;;11.75;10.50;;;;;19.22;63.17;101422.88;5014991;28;45633;-80
2021/07/16 02:22:30;;;;;;;;;11.25;10.75;;;;;19.29;63.64;101437.25;5007137;28;45671;-79
2021/07/16 02:24:55;;;;;;;;;11.00;9.00;;;;;19.29;63.06;101429.28;5013995;28;46353;-81
2021/07/16 02:27:21;;;;;;;;;8.75;8.50;;;;;19.28;63.36;101420.47;5012959;28;46137;-80
2021/07/16 02:29:46;;;;;;;;;11.00;11.00;;;;;19.22;63.74;101415.72;5014050;28;45750;-81
2021/07/16 02:32:11;;;;;;;;;9.00;8.50;;;;;19.26;63.58;101429.59;5009676;28;45686;-81
2021/07/16 02:34:37;;;;;;;;;9.00;8.00;;;;;19.25;63.39;101423.44;5014731;28;45558;-81
2021/07/16 02:37:02;;;;;;;;;10.50;10.25;;;;;19.21;63.64;101430.03;5002205;28;45707;-80
2021/07/16 02:39:28;;;;;;;;;10.25;9.00;;;;;19.25;63.45;101428.75;5013136;28;45589;-80
2021/07/16 02:41:53;;;;;;;;;9.25;9.00;;;;;19.22;63.67;101409.59;5013411;28;46226;-80
2021/07/16 02:44:18;;;;;;;;;7.75;7.75;;;;;19.21;63.82;101423.88;5013692;28;47315;-80
2021/07/16 02:46:44;;;;;;;;;9.25;8.75;;;;;19.25;63.29;101420.78;5010496;28;46007;-80
2021/07/16 02:49:10;;;;;;;;;11.50;9.75;;;;;19.16;63.31;101407.53;5009179;28;45961;-80
2021/07/16 02:51:37;;;;;;;;;9.75;8.00;;;;;19.10;63.62;101398.31;5011433;28;45461;-80
2021/07/16 02:54:03;;;;;;;;;9.00;8.50;;;;;19.16;64.05;101400.38;5013983;28;46082;-79
2021/07/16 02:56:28;;;;;;;;;10.00;9.00;;;;;19.27;63.74;101432.06;4995385;28;48366;-82
2021/07/16 02:58:53;;;;;;;;;9.50;9.50;;;;;19.26;63.88;101438.41;5013320;28;45691;-80
2021/07/16 03:01:19;;;;;;;;;8.75;8.50;;;;;19.19;63.85;101415.19;5013090;28;45737;-81
2021/07/16 03:03:44;;;;;;;;;12.50;9.50;;;;;19.18;63.93;101411.69;5004437;28;46325;-82
2021/07/16 03:06:09;;;;;;;;;13.50;9.75;;;;;19.25;63.83;101433.22;5013327;28;45663;-80
2021/07/16 03:08:35;;;;;;;;;8.00;8.00;;;;;19.24;64.68;101437.69;5013735;28;45734;-80
2021/07/16 03:11:01;;;;;;;;;7.50;7.50;;;;;19.23;64.24;101420.06;5011987;28;45888;-80
2021/07/16 03:13:26;;;;;;;;;8.75;7.50;;;;;19.22;64.14;101431.69;5004150;28;46670;-80
2021/07/16 03:15:52;;;;;;;;;7.50;7.00;;;;;19.21;64.42;101432.69;5013061;28;46031;-80
2021/07/16 03:18:20;;;;;;;;;10.25;9.00;;;;;19.21;64.74;101426.53;5013234;28;45654;-80
2021/07/16 03:20:46;;;;;;;;;9.00;9.00;;;;;19.20;64.40;101436.31;5009282;28;46021;-80
2021/07/16 03:23:14;;;;;;;;;7.25;7.25;;;;;19.19;64.77;101426.66;5013285;28;47639;-80
2021/07/16 03:25:41;;;;;;;;;9.00;8.75;;;;;19.19;64.77;101441.75;5013519;28;46351;-80
2021/07/16 03:28:07;;;;;;;;;8.00;8.00;;;;;19.18;64.54;101425.00;5013524;28;45791;-81
2021/07/16 03:30:34;;;;;;;;;8.00;8.00;;;;;19.17;65.13;101444.56;5013870;28;45523;-81
2021/07/16 03:33:00;;;;;;;;;8.25;7.25;;;;;19.07;64.90;101417.19;5008023;28;46657;-80
2021/07/16 03:35:26;;;;;;;;;8.00;8.00;;;;;19.11;64.63;101436.34;5012035;28;45814;-80
2021/07/16 03:37:52;;;;;;;;;9.25;8.25;;;;;19.10;65.22;101443.47;5022958;28;45737;-80
2021/07/16 03:40:22;;;;;;;;;7.00;6.25;;;;;19.06;64.93;101428.78;5019208;28;45651;-79
2021/07/16 03:42:48;;;;;;;;;9.75;9.00;;;;;19.06;65.05;101425.28;5015228;28;46516;-78
2021/07/16 03:45:15;;;;;;;;;9.50;7.25;;;;;19.06;65.46;101430.59;5020481;28;46300;-80
2021/07/16 03:47:43;;;;;;;;;7.00;6.50;;;;;19.06;64.83;101422.63;5019698;28;45683;-79
2021/07/16 03:50:10;;;;;;;;;6.25;6.25;;;;;19.02;65.22;101419.44;4997183;28;45688;-80
2021/07/16 03:52:36;;;;;;;;;6.25;5.75;;;;;19.02;65.04;101422.09;5011804;28;45765;-80
2021/07/16 03:55:05;;;;;;;;;7.00;6.00;;;;;19.08;65.02;101429.50;5011268;28;45643;-80
2021/07/16 03:57:31;;;;;;;;;7.50;6.00;;;;;19.12;65.02;101422.91;5012440;28;45733;-79
2021/07/16 03:59:57;;;;;;;;;8.50;7.75;;;;;19.12;65.14;101433.53;5013410;28;45665;-80
2021/07/16 04:02:22;;;;;;;;;7.75;7.00;;;;;19.05;65.43;101413.03;5012825;28;46388;-80
2021/07/16 04:04:51;;;;;;;;;5.50;5.25;;;;;19.08;65.61;101426.84;4999630;28;46306;-79
2021/07/16 04:07:18;;;;;;;;;7.25;5.50;;;;;19.05;65.66;101421.81;5012085;28;45774;-78
2021/07/16 04:09:43;;;;;;;;;9.50;8.00;;;;;19.11;65.38;101433.69;5013203;28;45631;-80
2021/07/16 04:12:11;;;;;;;;;6.50;6.50;;;;;19.01;65.26;101414.25;5011964;28;45718;-78
2021/07/16 04:14:40;;;;;;;;;6.00;5.50;;;;;19.11;65.74;101431.84;5013292;28;45932;-80
2021/07/16 04:17:09;;;;;;;;;6.50;5.75;;;;;19.05;65.43;101426.28;5012167;28;46082;-80
2021/07/16 04:19:35;;;;;;;;;7.25;5.50;;;;;19.07;65.52;101429.63;5013017;28;45571;-80
2021/07/16 04:22:01;;;;;;;;;7.00;6.00;;;;;19.03;66.11;101434.41;5004431;28;45723;-79
2021/07/16 04:24:26;;;;;;;;;7.00;6.50;;;;;19.06;66.04;101444.72;5012663;28;46154;-80
2021/07/16 04:26:51;;;;;;;;;7.75;7.00;;;;;19.01;65.92;101444.31;5011861;28;45690;-81
2021/07/16 04:29:17;;;;;;;;;8.00;7.25;;;;;19.04;66.03;101432.59;5007679;28;45789;-81
2021/07/16 04:31:43;;;;;;;;;8.00;7.00;;;;;19.03;65.81;101438.88;5011903;28;46730;-79
2021/07/16 04:34:08;;;;;;;;;6.75;6.00;;;;;18.99;66.09;101445.47;5012852;28;46215;-80
2021/07/16 04:36:33;;;;;;;;;7.75;7.00;;;;;18.88;66.50;101429.69;5000937;28;45686;-81
2021/07/16 04:38:59;;;;;;;;;7.00;5.75;;;;;18.98;66.36;101457.06;4994218;28;45983;-80
2021/07/16 04:41:24;;;;;;;;;6.50;6.25;;;;;18.95;66.49;101449.38;5011386;28;45870;-79
2021/07/16 04:43:49;;;;;;;;;7.75;7.75;;;;;18.85;66.35;101430.78;5012151;28;45738;-80
2021/07/16 04:46:15;;;;;;;;;5.75;5.25;;;;;18.94;66.20;101447.72;5001188;28;45804;-80
2021/07/16 04:48:40;;;;;;;;;7.00;6.50;;;;;18.89;66.59;101442.81;4999703;28;45858;-80
2021/07/16 04:51:06;;;;;;;;;7.75;7.75;;;;;18.83;66.16;101438.91;5008733;28;46943;-81
2021/07/16 04:53:31;;;;;;;;;8.50;7.75;;;;;18.90;66.75;101446.28;5011943;28;45646;-80
2021/07/16 04:55:56;;;;;;;;;7.00;7.00;;;;;18.89;67.13;101465.88;5012211;28;45612;-79
2021/07/16 04:58:22;;;;;;;;;7.00;6.25;;;;;18.86;66.45;101451.06;5011851;28;45810;-80
2021/07/16 05:00:47;;;;;;;;;7.75;7.50;;;;;18.81;66.60;101450.66;4991760;28;48852;-80
2021/07/16 05:03:12;;;;;;;;;6.25;6.00;;;;;18.84;66.65;101453.84;4998274;28;45809;-79
2021/07/16 05:05:38;;;;;;;;;7.00;6.00;;;;;18.84;67.06;101458.31;5003240;28;45785;-77
2021/07/16 05:08:03;;;;;;;;;8.00;7.00;;;;;18.83;66.79;101469.94;5011108;28;46297;-81
2021/07/16 05:10:29;;;;;;;;;8.00;7.00;;;;;18.69;66.81;101431.38;5001831;28;46983;-80
2021/07/16 05:12:54;;;;;;;;;7.00;7.00;;;;;18.73;66.81;101445.22;5000610;28;45833;-81
2021/07/16 05:15:20;;;;;;;;;8.75;7.75;;;;;18.80;67.37;101457.78;5007627;28;46151;-80
2021/07/16 05:17:45;;;;;;;;;7.00;7.00;;;;;18.46;67.21;101401.59;5000249;28;45855;-81
2021/07/16 05:20:11;;;;;;;;;7.50;6.75;;;;;18.78;67.04;101454.44;5002535;28;45720;-80
2021/07/16 05:22:37;;;;;;;;;10.00;8.50;;;;;18.54;67.17;101418.63;5008857;28;45732;-80
2021/07/16 05:25:04;;;;;;;;;9.50;8.50;;;;;18.80;67.32;101464.91;5006204;28;45774;-80
2021/07/16 05:27:29;;;;;;;;;8.25;7.25;;;;;18.79;67.13;101469.38;5006250;28;45963;-76
2021/07/16 05:29:55;;;;;;;;;8.50;7.00;;;;;18.71;67.24;101455.13;5008596;28;46385;-79
2021/07/16 05:32:20;;;;;;;;;8.25;7.75;;;;;18.75;67.51;101457.34;5000500;28;46388;-78
2021/07/16 05:34:46;;;;;;;;;7.00;7.00;;;;;18.74;67.37;101468.13;5004437;28;45699;-78
2021/07/16 05:37:11;;;;;;;;;10.00;7.25;;;;;18.64;67.67;101432.78;4987786;28;45891;-80
2021/07/16 05:39:37;;;;;;;;;10.00;9.25;;;;;18.80;67.35;101470.22;5008763;28;46238;-80
2021/07/16 05:42:04;;;;;;;;;8.50;6.75;;;;;18.78;67.76;101481.00;5008568;28;45690;-80
2021/07/16 05:44:31;;;;;;;;;7.75;7.00;;;;;18.77;67.40;101466.03;5009012;28;45683;-78
2021/07/16 05:46:56;;;;;;;;;10.50;8.75;;;;;18.77;67.67;101470.50;5013804;28;45841;-80
2021/07/16 05:49:22;;;;;;;;;7.25;7.00;;;;;18.65;67.49;101459.19;5012063;28;46816;-79
2021/07/16 05:51:47;;;;;;;;;7.00;7.00;;;;;18.76;67.46;101485.59;5001229;28;47478;-78
2021/07/16 05:54:12;;;;;;;;;6.75;6.00;;;;;18.74;67.93;101481.38;4998026;28;45739;-79
2021/07/16 05:56:41;;;;;;;;;8.50;7.50;;;;;18.69;67.78;101467.69;5003099;28;45820;-81
2021/07/16 05:59:07;;;;;;;;;7.50;7.25;;;;;18.66;67.60;101470.66;5016151;28;47498;-79
2021/07/16 06:01:32;;;;;;;;;6.75;6.25;;;;;18.71;68.02;101484.34;5002526;28;45936;-79
2021/07/16 06:04:01;;;;;;;;;7.00;7.00;;;;;18.67;67.84;101481.13;5018309;28;46036;-80
2021/07/16 06:06:26;;;;;;;;;8.00;7.75;;;;;18.60;67.89;101469.38;5014577;28;45749;-81
2021/07/16 06:08:51;;;;;;;;;9.50;8.50;;;;;18.72;68.00;101481.56;5010174;28;46568;-78
2021/07/16 06:11:17;;;;;;;;;8.50;7.25;;;;;18.66;67.34;101479.44;5013869;28;45753;-80
2021/07/16 06:13:42;;;;;;;;;11.00;7.25;;;;;18.69;67.73;101478.31;5003410;28;45770;-80
2021/07/16 06:16:07;;;;;;;;;6.00;5.25;;;;;18.74;67.73;101492.00;5011110;28;45764;-80
2021/07/16 06:18:33;;;;;;;;;5.50;5.50;;;;;18.64;68.02;101477.91;5013440;28;47423;-80
2021/07/16 06:20:58;;;;;;;;;7.50;6.50;;;;;18.81;67.57;101514.38;5008982;28;46466;-80
2021/07/16 06:23:24;;;;;;;;;7.75;7.50;;;;;18.81;67.32;101506.41;5006913;28;45788;-76
2021/07/16 06:25:49;;;;;;;;;5.75;4.75;;;;;18.70;67.74;101483.50;5014791;28;45622;-76
2021/07/16 06:28:15;;;;;;;;;9.50;9.00;;;;;18.75;67.87;101486.56;5014927;28;45722;-77
2021/07/16 06:30:40;;;;;;;;;5.50;5.50;;;;;18.85;67.42;101513.09;5015149;28;45705;-77
2021/07/16 06:33:06;;;;;;;;;7.25;5.00;;;;;18.85;67.95;101507.81;5015685;28;45653;-75
2021/07/16 06:35:32;;;;;;;;;8.50;6.00;;;;;18.80;67.83;101512.69;5015151;28;45763;-76
2021/07/16 06:37:57;;;;;;;;;6.00;5.25;;;;;18.82;67.32;101513.41;5015488;28;45525;-77
2021/07/16 06:40:23;;;;;;;;;5.00;4.50;;;;;18.86;67.31;101520.09;5014761;28;45654;-76
2021/07/16 06:42:48;;;;;;;;;6.00;5.25;;;;;18.87;67.54;101529.75;5015541;28;45675;-77
2021/07/16 06:48:35;;;;;;;;;6.00;5.75;;;;;18.84;67.77;101524.69;5016104;28;45614;-78
2021/07/16 06:51:01;;;;;;;;;5.00;5.00;;;;;18.83;67.81;101533.66;5018318;28;46066;-81
2021/07/16 06:53:27;;;;;;;;;6.00;5.00;;;;;18.73;67.79;101515.06;5019648;28;45604;-78
2021/07/16 06:55:52;;;;;;;;;3.75;3.75;;;;;18.77;67.37;101528.91;5019147;28;45686;-81
2021/07/16 06:58:17;;;;;;;;;5.00;4.00;;;;;18.82;68.01;101540.78;5018842;28;46832;-79
2021/07/16 07:04:08;;;;;;;;;5.50;5.00;;;;;18.75;67.40;101536.16;5019132;28;45722;-79
2021/07/16 07:06:33;;;;;;;;;6.00;4.50;;;;;18.69;67.73;101524.28;5019545;28;45516;-79
2021/07/16 07:08:59;;;;;;;;;4.75;4.00;;;;;18.73;67.38;101544.25;5019215;28;46346;-81
2021/07/16 07:11:24;;;;;;;;;5.25;4.75;;;;;18.72;67.66;101545.28;5018014;28;45547;-80
2021/07/16 07:13:50;;;;;;;;;4.00;4.00;;;;;18.72;68.04;101555.03;5019140;28;45752;-80
2021/07/16 07:16:16;;;;;;;;;5.50;4.75;;;;;18.68;68.07;101543.00;5019072;28;45514;-79
2021/07/16 07:18:45;;;;;;;;;4.50;4.00;;;;;18.68;68.09;101556.28;5016588;28;46495;-80
2021/07/16 07:21:14;;;;;;;;;4.50;4.25;;;;;18.70;67.51;101562.28;5016572;28;46175;-81
2021/07/16 07:23:40;;;;;;;;;5.00;4.00;;;;;18.55;67.74;101539.78;5018500;28;45748;-84
2021/07/16 07:26:06;;;;;;;;;3.00;3.00;;;;;18.69;68.13;101556.16;5017590;28;45468;-80
2021/07/16 07:28:31;;;;;;;;;3.25;3.25;;;;;18.60;68.02;101543.72;5015905;28;46371;-79
2021/07/16 07:34:19;;;;;;;;;2.25;2.25;;;;;18.62;67.13;101548.88;5015002;28;45500;-78
2021/07/16 07:36:47;;;;;;;;;3.00;3.00;;;;;18.68;67.58;101558.94;5015090;28;45512;-80
2021/07/16 07:39:13;;;;;;;;;3.25;3.00;;;;;18.63;67.58;101543.41;5011567;28;46671;-80
2021/07/16 07:41:41;;;;;;;;;3.00;2.25;;;;;18.68;67.35;101541.19;5014779;28;46584;-79
2021/07/16 07:44:06;;;;;;;;;1.00;1.00;;;;;18.67;67.46;101536.03;5014894;28;45627;-81
2021/07/16 07:46:32;;;;;;;;;3.50;2.75;;;;;18.63;67.39;101527.50;5014917;28;45663;-79
2021/07/16 07:48:57;;;;;;;;;2.00;2.00;;;;;18.71;67.49;101527.66;5014758;28;46493;-81
2021/07/16 07:51:23;;;;;;;;;1.00;1.00;;;;;18.80;66.95;101549.88;5014869;28;45628;-79
2021/07/16 07:53:48;;;;;;;;;1.50;1.00;;;;;18.90;66.87;101545.41;5014735;28;45746;-81
2021/07/16 07:56:13;;;;;;;;;0.75;0.75;;;;;18.88;66.59;101538.56;5015164;28;45629;-80
2021/07/16 07:58:39;;;;;;;;;3.00;2.00;;;;;18.97;66.86;101561.63;5015115;28;46374;-81
2021/07/16 08:04:26;;;;;;;;;0.50;0.50;;;;;19.10;66.28;101564.84;5014684;28;45662;-80
2021/07/16 08:06:53;;;;;;;;;1.50;1.50;;;;;19.06;66.17;101572.22;5013950;28;45854;-78
2021/07/16 08:09:19;;;;;;;;;0.50;0.50;;;;;19.16;66.23;101566.94;5014840;28;46478;-79
2021/07/16 08:11:44;;;;;;;;;1.00;1.00;;;;;19.09;65.73;101550.72;5014905;28;45545;-78
2021/07/16 08:14:09;;;;;;;;;1.00;1.00;;;;;19.23;65.40;101568.03;5014923;28;45665;-79
2021/07/16 08:20:11;;;;;;;;;1.25;1.25;;;;;19.21;65.32;101559.38;5014853;28;46039;-80
2021/07/16 08:22:39;;;;;;;;;1.00;1.00;;;;;19.25;65.14;101574.06;5014825;28;46299;-83
2021/07/16 08:25:06;;;;;;;;;1.75;1.50;;;;;19.31;65.57;101572.66;5014925;28;45657;-83
2021/07/16 08:27:32;;;;;;;;;1.25;1.00;;;;;19.37;65.42;101582.72;5014795;28;45555;-84
2021/07/16 08:29:57;;;;;;;;;1.50;1.50;;;;;19.43;65.10;101584.81;5014247;28;46544;-77
2021/07/16 08:32:22;;;;;;;;;3.25;2.25;;;;;19.46;65.37;101584.53;5014606;28;46180;-77
2021/07/16 08:34:48;;;;;;;;;2.00;2.00;;;;;19.47;65.47;101579.09;5013928;28;45527;-80
2021/07/16 08:37:14;;;;;;;;;1.75;1.75;;;;;19.48;65.18;101583.44;5014378;28;45608;-79
2021/07/16 08:39:40;;;;;;;;;3.00;2.75;;;;;19.52;65.16;101594.63;5014208;28;46142;-79
2021/07/16 08:42:07;;;;;;;;;1.25;1.25;;;;;19.44;65.24;101589.97;5014191;28;45913;-76
2021/07/16 08:44:36;;;;;;;;;1.50;0.75;;;;;19.55;65.08;101599.63;5014115;28;45698;-77
2021/07/16 08:50:25;;;;;;;;;1.25;1.25;;;;;19.51;64.93;101579.63;5013728;28;45655;-80
2021/07/16 08:52:50;;;;;;;;;1.50;1.50;;;;;19.58;65.30;101589.56;5014067;28;46035;-79
2021/07/16 08:55:18;;;;;;;;;3.50;2.50;;;;;19.60;64.99;101592.06;5013851;28;45580;-78
2021/07/16 08:57:44;;;;;;;;;2.00;1.00;;;;;19.64;64.90;101606.78;5013590;28;45689;-78
2021/07/16 09:00:13;;;;;;;;;1.50;1.50;;;;;19.61;64.75;101589.28;5013937;28;45551;-77
2021/07/16 09:02:50;;;;;;;;;3.00;2.50;;;;;19.61;65.09;101586.59;5013790;28;45981;-77
2021/07/16 09:05:15;;;;;;;;;2.50;1.75;;;;;19.64;65.03;101591.66;5013721;28;45752;-79
2021/07/16 09:07:49;;;;;;;;;3.00;3.00;;;;;19.65;64.77;101598.63;5013691;28;45662;-78
2021/07/16 09:10:18;;;;;;;;;3.25;2.50;;;;;19.67;64.89;101593.19;5013728;28;46586;-84
2021/07/16 09:12:44;;;;;;;;;3.25;2.50;;;;;19.67;64.85;101602.00;5014095;28;46377;-78
2021/07/16 09:15:15;;;;;;;;;4.00;2.75;;;;;19.67;64.54;101619.75;5013981;28;45854;-79
2021/07/16 09:17:46;;;;;;;;;3.75;3.00;;;;;19.45;64.65;101569.56;5014109;28;45638;-77
2021/07/16 09:20:32;;;;;;;;;5.00;5.00;;;;;19.53;64.28;101613.09;5017269;28;45574;-78
2021/07/16 09:23:18;;;;;;;;;5.50;3.75;;;;;19.49;64.98;101610.81;5016666;28;46079;-77
2021/07/16 09:26:01;;;;;;;;;4.75;4.50;;;;;19.47;64.96;101616.31;5017233;28;45562;-77
2021/07/16 09:28:26;;;;;;;;;4.25;3.75;;;;;19.35;64.85;101601.47;5017442;28;45755;-78
2021/07/16 09:31:07;;;;;;;;;6.00;5.75;;;;;19.23;65.23;101597.25;5017618;28;45559;-78
2021/07/16 09:33:44;;;;;;;;;7.00;5.50;;;;;19.32;64.89;101617.69;5018034;28;45853;-78
2021/07/16 09:36:10;;;;;;;;;5.50;4.00;;;;;19.28;64.69;101611.81;5021631;28;45706;-77
2021/07/16 09:38:35;;;;;;;;;7.00;5.25;;;;;19.21;65.03;101604.56;5023132;28;45528;-77
2021/07/16 09:41:05;;;;;;;;;5.00;4.00;;;;;19.23;65.42;101621.16;5023043;28;45519;-77
2021/07/16 09:43:31;;;;;;;;;7.50;5.75;;;;;19.17;65.06;101608.44;5024246;28;46261;-78
2021/07/16 09:46:03;;;;;;;;;7.50;6.25;;;;;19.18;65.14;101631.38;5023388;28;45570;-78
2021/07/16 09:48:31;;;;;;;;;7.00;5.50;;;;;19.14;65.28;101630.84;5022290;28;45618;-77
2021/07/16 09:51:13;;;;;;;;;4.50;4.25;;;;;19.11;65.27;101627.63;5017764;28;46268;-79
2021/07/16 09:54:01;;;;;;;;;5.50;4.50;;;;;19.08;65.20;101628.72;5017331;28;46075;-79
2021/07/16 09:56:31;;;;;;;;;3.00;2.75;;;;;18.83;65.14;101611.53;5016562;28;45698;-76
2021/07/16 09:59:08;;;;;;;;;3.75;3.00;;;;;19.03;64.84;101635.44;5017117;28;45678;-78
2021/07/16 10:01:36;;;;;;;;;6.75;5.50;;;;;18.95;65.09;101622.03;5015671;28;45665;-78
2021/07/16 10:04:04;;;;;;;;;4.25;4.25;;;;;19.01;65.27;101630.25;5015885;28;46399;-78
2021/07/16 10:06:29;;;;;;;;;4.75;4.75;;;;;19.03;65.04;101623.00;5015805;28;45742;-77
2021/07/16 10:08:56;;;;;;;;;5.50;4.25;;;;;19.06;65.04;101630.69;5015328;28;45524;-77
2021/07/16 10:11:24;;;;;;;;;4.25;4.25;;;;;19.08;65.16;101638.50;5015290;28;46449;-78
2021/07/16 10:13:50;;;;;;;;;4.75;4.25;;;;;19.10;64.63;101624.13;5015421;28;46068;-80
2021/07/16 10:16:16;;;;;;;;;5.00;5.00;;;;;19.12;64.86;101624.81;5014935;28;45700;-80
2021/07/16 10:18:42;;;;;;;;;3.50;3.50;;;;;19.17;64.51;101641.16;5015497;28;45598;-77
2021/07/16 10:21:08;;;;;;;;;4.75;4.25;;;;;19.21;64.68;101647.91;5014903;28;46539;-78
2021/07/16 10:23:34;;;;;;;;;4.75;4.25;;;;;19.26;64.59;101636.84;5014712;28;46251;-77
2021/07/16 10:26:02;;;;;;;;;4.75;4.00;;;;;19.25;64.26;101635.16;5014556;28;45796;-75
2021/07/16 10:28:41;;;;;;;;;6.00;4.75;;;;;19.36;64.45;101635.03;5014606;28;45783;-78
2021/07/16 10:31:39;;;;;;;;;4.75;4.50;;;;;19.40;64.05;101640.91;5014297;28;46627;-77
2021/07/16 10:34:04;;;;;;;;;6.00;5.50;;;;;19.41;63.93;101631.94;4997033;28;47581;-76
2021/07/16 10:36:44;;;;;;;;;5.00;4.25;;;;;19.41;64.21;101631.94;5014514;28;45616;-78
2021/07/16 10:39:21;;;;;;;;;5.25;4.00;;;;;19.43;64.18;101643.28;5014386;28;45681;-78
2021/07/16 10:41:46;;;;;;;;;4.50;3.50;;;;;19.42;63.62;101653.06;5014241;28;46568;-79
2021/07/16 10:44:14;;;;;;;;;5.25;4.50;;;;;19.40;63.86;101655.03;5014402;28;46337;-78
2021/07/16 10:46:44;;;;;;;;;6.75;5.75;;;;;19.38;63.56;101659.63;5013915;28;45693;-77
2021/07/16 10:49:12;;;;;;;;;4.75;4.75;;;;;19.40;63.75;101659.50;5014757;28;45683;-79
2021/07/16 10:51:39;;;;;;;;;4.50;4.25;;;;;19.30;63.48;101654.19;5014372;28;46644;-78
2021/07/16 10:54:10;;;;;;;;;4.50;4.50;;;;;19.28;63.53;101651.66;4996184;28;46962;-79
2021/07/16 10:56:46;;;;;;;;;3.75;3.75;;;;;19.36;63.47;101658.94;5014154;28;45809;-77
2021/07/16 10:59:46;;;;;;;;;8.75;6.25;;;;;19.36;63.16;101666.09;5014568;28;45682;-79
2021/07/16 11:02:48;;;;;;;;;7.00;6.75;;;;;19.35;63.33;101664.41;5013952;28;46856;-78
2021/07/16 11:05:32;;;;;;;;;9.25;8.00;;;;;19.33;62.87;101666.34;5015429;28;45915;-78
2021/07/16 11:08:02;;;;;;;;;8.00;8.00;;;;;19.25;62.98;101675.03;5015283;28;45619;-75
2021/07/16 11:10:47;;;;;;;;;7.25;7.00;;;;;19.26;62.93;101679.38;4998135;28;45981;-79
2021/07/16 11:13:32;;;;;;;;;8.00;7.50;;;;;19.15;63.01;101663.56;5015760;28;45912;-79
2021/07/16 11:15:58;;;;;;;;;9.00;8.00;;;;;19.17;62.86;101675.72;5015557;28;46285;-78
2021/07/16 11:18:28;;;;;;;;;6.00;5.75;;;;;19.16;62.78;101678.53;5015472;28;45837;-78
2021/07/16 11:20:54;;;;;;;;;9.75;8.50;;;;;19.08;62.32;101668.56;5015506;28;45687;-77
2021/07/16 11:23:20;;;;;;;;;8.00;6.00;;;;;19.16;62.29;101687.31;5014737;28;47272;-78
2021/07/16 11:25:46;;;;;;;;;7.75;7.00;;;;;19.12;62.37;101672.63;5014935;28;47016;-78
2021/07/16 11:28:12;;;;;;;;;10.50;10.00;;;;;19.15;62.25;101684.81;5015065;28;45644;-78
2021/07/16 11:30:37;;;;;;;;;9.75;9.25;;;;;19.14;62.04;101676.00;5016294;28;45766;-79
2021/07/16 11:33:06;;;;;;;;;10.00;8.00;;;;;19.07;62.01;101674.88;5016092;28;46186;-78
2021/07/16 11:35:32;;;;;;;;;8.25;8.25;;;;;19.12;62.05;101683.25;5015823;28;46386;-79
2021/07/16 11:37:58;;;;;;;;;9.25;9.00;;;;;19.11;62.18;101680.75;5015843;28;45594;-78
2021/07/16 11:40:26;;;;;;;;;10.25;9.00;;;;;19.14;61.92;101686.63;5015385;28;45782;-79
2021/07/16 11:42:57;;;;;;;;;10.00;9.25;;;;;19.03;62.14;101659.34;5015028;28;46926;-78
2021/07/16 11:45:30;;;;;;;;;9.00;8.25;;;;;19.15;62.41;101671.53;5014898;28;46177;-79
2021/07/16 11:47:57;;;;;;;;;9.25;9.25;;;;;19.10;62.33;101671.09;5014516;28;45796;-80